sensor_id;sensor_type;location;lat;lon;timestamp;P1;durP1;ratioP1;P2;durP2;ratioP2
30133;SDS011;16946;49.984;10.672;2023-12-20T00:00:20;6.43;;;4.47;;
30133;SDS011;16946;49.984;10.672;2023-12-20T00:00:50;6.57;;;4.70;;
30133;SDS011;16946;49.984;10.672;2023-12-20T00:01:22;5.47;;;4.33;;
30133;SDS011;16946;49.984;10.672;2023-12-20T00:01:53;5.85;;;5.22;;
30133;SDS011;16946;49.984;10.672;2023-12-20T00:02:23;5.50;;;5.00;;
30133;SDS011;16946;49.984;10.672;2023-12-20T00:02:54;5.27;;;4.77;;
30133;SDS011;16946;49.984;10.672;2023-12-20T00:03:24;6.57;;;5.20;;
30133;SDS011;16946;49.984;10.672;2023-12-20T00:03:55;5.43;;;4.67;;
30133;SDS011;16946;49.984;10.672;2023-12-20T00:04:25;5.57;;;4.87;;
30133;SDS011;16946;49.984;10.672;2023-12-20T00:04:56;5.20;;;4.60;;
30133;SDS011;16946;49.984;10.672;2023-12-20T00:05:26;6.30;;;5.20;;
30133;SDS011;16946;49.984;10.672;2023-12-20T00:05:57;6.60;;;5.17;;
30133;SDS011;16946;49.984;10.672;2023-12-20T00:06:27;6.13;;;5.03;;
30133;SDS011;16946;49.984;10.672;2023-12-20T00:06:58;6.20;;;5.33;;
30133;SDS011;16946;49.984;10.672;2023-12-20T00:07:28;6.80;;;5.37;;
30133;SDS011;16946;49.984;10.672;2023-12-20T00:07:59;6.03;;;5.43;;
30133;SDS011;16946;49.984;10.672;2023-12-20T00:08:29;5.00;;;4.60;;
30133;SDS011;16946;49.984;10.672;2023-12-20T00:09:00;6.30;;;4.50;;
30133;SDS011;16946;49.984;10.672;2023-12-20T00:09:30;5.90;;;4.80;;
30133;SDS011;16946;49.984;10.672;2023-12-20T00:10:01;7.13;;;5.27;;
30133;SDS011;16946;49.984;10.672;2023-12-20T00:10:31;10.20;;;4.80;;
30133;SDS011;16946;49.984;10.672;2023-12-20T00:11:02;7.03;;;5.00;;
30133;SDS011;16946;49.984;10.672;2023-12-20T00:11:32;5.80;;;5.00;;
30133;SDS011;16946;49.984;10.672;2023-12-20T00:12:03;6.30;;;4.50;;
30133;SDS011;16946;49.984;10.672;2023-12-20T00:12:33;5.00;;;4.50;;
30133;SDS011;16946;49.984;10.672;2023-12-20T00:13:04;8.43;;;5.73;;
30133;SDS011;16946;49.984;10.672;2023-12-20T00:13:35;6.57;;;5.33;;
30133;SDS011;16946;49.984;10.672;2023-12-20T00:14:05;7.00;;;5.17;;
30133;SDS011;16946;49.984;10.672;2023-12-20T00:14:36;6.63;;;5.67;;
30133;SDS011;16946;49.984;10.672;2023-12-20T00:15:06;5.43;;;4.93;;
30133;SDS011;16946;49.984;10.672;2023-12-20T00:15:37;6.20;;;5.57;;
30133;SDS011;16946;49.984;10.672;2023-12-20T00:16:09;5.07;;;4.57;;
30133;SDS011;16946;49.984;10.672;2023-12-20T00:16:39;7.13;;;5.00;;
30133;SDS011;16946;49.984;10.672;2023-12-20T00:17:10;5.80;;;5.30;;
30133;SDS011;16946;49.984;10.672;2023-12-20T00:17:40;6.90;;;5.40;;
30133;SDS011;16946;49.984;10.672;2023-12-20T00:18:11;7.27;;;5.67;;
30133;SDS011;16946;49.984;10.672;2023-12-20T00:18:41;5.13;;;4.43;;
30133;SDS011;16946;49.984;10.672;2023-12-20T00:19:12;15.63;;;4.70;;
30133;SDS011;16946;49.984;10.672;2023-12-20T00:19:42;4.77;;;4.37;;
30133;SDS011;16946;49.984;10.672;2023-12-20T00:20:13;4.73;;;4.13;;
30133;SDS011;16946;49.984;10.672;2023-12-20T00:20:44;4.73;;;4.23;;
30133;SDS011;16946;49.984;10.672;2023-12-20T00:21:14;5.37;;;4.83;;
30133;SDS011;16946;49.984;10.672;2023-12-20T00:21:45;8.10;;;5.03;;
30133;SDS011;16946;49.984;10.672;2023-12-20T00:22:15;4.90;;;4.50;;
30133;SDS011;16946;49.984;10.672;2023-12-20T00:22:46;5.00;;;3.90;;
30133;SDS011;16946;49.984;10.672;2023-12-20T00:23:16;4.10;;;3.73;;
30133;SDS011;16946;49.984;10.672;2023-12-20T00:23:47;4.37;;;3.97;;
30133;SDS011;16946;49.984;10.672;2023-12-20T00:24:17;4.83;;;4.03;;
30133;SDS011;16946;49.984;10.672;2023-12-20T00:24:48;3.97;;;3.67;;
30133;SDS011;16946;49.984;10.672;2023-12-20T00:25:18;5.50;;;4.00;;
30133;SDS011;16946;49.984;10.672;2023-12-20T00:25:49;4.00;;;3.60;;
30133;SDS011;16946;49.984;10.672;2023-12-20T00:26:19;5.90;;;3.70;;
30133;SDS011;16946;49.984;10.672;2023-12-20T00:26:50;4.60;;;4.20;;
30133;SDS011;16946;49.984;10.672;2023-12-20T00:27:20;4.37;;;3.93;;
30133;SDS011;16946;49.984;10.672;2023-12-20T00:27:51;4.20;;;3.67;;
30133;SDS011;16946;49.984;10.672;2023-12-20T00:28:22;4.95;;;4.45;;
30133;SDS011;16946;49.984;10.672;2023-12-20T00:28:53;4.40;;;4.00;;
30133;SDS011;16946;49.984;10.672;2023-12-20T00:29:23;4.43;;;4.00;;
30133;SDS011;16946;49.984;10.672;2023-12-20T00:29:54;5.50;;;3.70;;
30133;SDS011;16946;49.984;10.672;2023-12-20T00:30:24;4.07;;;3.70;;
30133;SDS011;16946;49.984;10.672;2023-12-20T00:30:55;4.10;;;3.73;;
30133;SDS011;16946;49.984;10.672;2023-12-20T00:31:25;4.00;;;3.50;;
30133;SDS011;16946;49.984;10.672;2023-12-20T00:31:56;5.67;;;4.27;;
30133;SDS011;16946;49.984;10.672;2023-12-20T00:32:26;4.53;;;3.63;;
30133;SDS011;16946;49.984;10.672;2023-12-20T00:32:57;4.27;;;3.47;;
30133;SDS011;16946;49.984;10.672;2023-12-20T00:33:27;4.23;;;3.60;;
30133;SDS011;16946;49.984;10.672;2023-12-20T00:33:58;4.03;;;3.73;;
30133;SDS011;16946;49.984;10.672;2023-12-20T00:34:28;3.90;;;3.50;;
30133;SDS011;16946;49.984;10.672;2023-12-20T00:34:59;4.10;;;3.53;;
30133;SDS011;16946;49.984;10.672;2023-12-20T00:35:29;4.80;;;3.33;;
30133;SDS011;16946;49.984;10.672;2023-12-20T00:36:00;5.37;;;3.77;;
30133;SDS011;16946;49.984;10.672;2023-12-20T00:36:30;4.57;;;3.63;;
30133;SDS011;16946;49.984;10.672;2023-12-20T00:37:01;3.97;;;3.30;;
30133;SDS011;16946;49.984;10.672;2023-12-20T00:37:31;6.60;;;3.50;;
30133;SDS011;16946;49.984;10.672;2023-12-20T00:38:02;5.10;;;3.60;;
30133;SDS011;16946;49.984;10.672;2023-12-20T00:38:32;4.47;;;3.17;;
30133;SDS011;16946;49.984;10.672;2023-12-20T00:39:03;5.87;;;4.07;;
30133;SDS011;16946;49.984;10.672;2023-12-20T00:39:34;4.38;;;3.35;;
30133;SDS011;16946;49.984;10.672;2023-12-20T00:40:05;4.37;;;3.57;;
30133;SDS011;16946;49.984;10.672;2023-12-20T00:40:36;3.83;;;2.92;;
30133;SDS011;16946;49.984;10.672;2023-12-20T00:41:06;3.30;;;3.00;;
30133;SDS011;16946;49.984;10.672;2023-12-20T00:41:37;5.03;;;3.63;;
30133;SDS011;16946;49.984;10.672;2023-12-20T00:42:07;4.70;;;3.77;;
30133;SDS011;16946;49.984;10.672;2023-12-20T00:42:38;4.20;;;3.20;;
30133;SDS011;16946;49.984;10.672;2023-12-20T00:43:08;4.07;;;2.87;;
30133;SDS011;16946;49.984;10.672;2023-12-20T00:43:39;3.57;;;3.27;;
30133;SDS011;16946;49.984;10.672;2023-12-20T00:44:09;3.97;;;3.53;;
30133;SDS011;16946;49.984;10.672;2023-12-20T00:44:40;4.20;;;3.20;;
30133;SDS011;16946;49.984;10.672;2023-12-20T00:45:10;3.87;;;3.47;;
30133;SDS011;16946;49.984;10.672;2023-12-20T00:45:41;3.50;;;3.20;;
30133;SDS011;16946;49.984;10.672;2023-12-20T00:46:11;4.70;;;2.67;;
30133;SDS011;16946;49.984;10.672;2023-12-20T00:46:42;3.67;;;2.90;;
30133;SDS011;16946;49.984;10.672;2023-12-20T00:47:12;3.57;;;3.27;;
30133;SDS011;16946;49.984;10.672;2023-12-20T00:47:43;3.13;;;2.80;;
30133;SDS011;16946;49.984;10.672;2023-12-20T00:48:13;5.60;;;2.97;;
30133;SDS011;16946;49.984;10.672;2023-12-20T00:48:44;4.83;;;3.37;;
30133;SDS011;16946;49.984;10.672;2023-12-20T00:49:15;4.30;;;3.42;;
30133;SDS011;16946;49.984;10.672;2023-12-20T00:49:46;3.47;;;3.17;;
30133;SDS011;16946;49.984;10.672;2023-12-20T00:50:16;3.53;;;3.03;;
30133;SDS011;16946;49.984;10.672;2023-12-20T00:50:47;3.57;;;2.90;;
30133;SDS011;16946;49.984;10.672;2023-12-20T00:51:17;3.33;;;3.03;;
30133;SDS011;16946;49.984;10.672;2023-12-20T00:51:48;5.23;;;3.53;;
30133;SDS011;16946;49.984;10.672;2023-12-20T00:52:20;3.33;;;3.03;;
30133;SDS011;16946;49.984;10.672;2023-12-20T00:52:52;3.80;;;2.78;;
30133;SDS011;16946;49.984;10.672;2023-12-20T00:53:24;3.25;;;2.80;;
30133;SDS011;16946;49.984;10.672;2023-12-20T00:53:55;3.57;;;2.70;;
30133;SDS011;16946;49.984;10.672;2023-12-20T00:54:25;3.40;;;2.77;;
30133;SDS011;16946;49.984;10.672;2023-12-20T00:54:56;2.67;;;2.40;;
30133;SDS011;16946;49.984;10.672;2023-12-20T00:55:26;3.53;;;3.20;;
30133;SDS011;16946;49.984;10.672;2023-12-20T00:55:57;2.80;;;2.60;;
30133;SDS011;16946;49.984;10.672;2023-12-20T00:56:28;2.70;;;2.50;;
30133;SDS011;16946;49.984;10.672;2023-12-20T00:56:59;3.77;;;3.07;;
30133;SDS011;16946;49.984;10.672;2023-12-20T00:57:29;3.20;;;2.70;;
30133;SDS011;16946;49.984;10.672;2023-12-20T00:58:01;2.97;;;2.67;;
30133;SDS011;16946;49.984;10.672;2023-12-20T00:58:31;3.57;;;3.27;;
30133;SDS011;16946;49.984;10.672;2023-12-20T00:59:02;2.70;;;2.50;;
30133;SDS011;16946;49.984;10.672;2023-12-20T00:59:32;2.70;;;2.50;;
30133;SDS011;16946;49.984;10.672;2023-12-20T01:00:03;2.93;;;2.37;;
30133;SDS011;16946;49.984;10.672;2023-12-20T01:00:34;2.80;;;2.60;;
30133;SDS011;16946;49.984;10.672;2023-12-20T01:01:04;4.43;;;3.07;;
30133;SDS011;16946;49.984;10.672;2023-12-20T01:01:35;2.50;;;2.30;;
30133;SDS011;16946;49.984;10.672;2023-12-20T01:02:05;2.53;;;2.30;;
30133;SDS011;16946;49.984;10.672;2023-12-20T01:02:36;2.83;;;2.30;;
30133;SDS011;16946;49.984;10.672;2023-12-20T01:03:06;2.70;;;2.33;;
30133;SDS011;16946;49.984;10.672;2023-12-20T01:03:37;2.63;;;2.43;;
30133;SDS011;16946;49.984;10.672;2023-12-20T01:04:08;3.00;;;2.33;;
30133;SDS011;16946;49.984;10.672;2023-12-20T01:04:38;2.80;;;2.50;;
30133;SDS011;16946;49.984;10.672;2023-12-20T01:05:09;2.33;;;2.13;;
30133;SDS011;16946;49.984;10.672;2023-12-20T01:05:39;3.33;;;2.07;;
30133;SDS011;16946;49.984;10.672;2023-12-20T01:06:10;2.57;;;2.27;;
30133;SDS011;16946;49.984;10.672;2023-12-20T01:06:40;2.43;;;2.23;;
30133;SDS011;16946;49.984;10.672;2023-12-20T01:07:11;2.70;;;2.50;;
30133;SDS011;16946;49.984;10.672;2023-12-20T01:07:41;5.23;;;2.53;;
30133;SDS011;16946;49.984;10.672;2023-12-20T01:08:12;2.83;;;2.50;;
30133;SDS011;16946;49.984;10.672;2023-12-20T01:08:42;4.33;;;2.30;;
30133;SDS011;16946;49.984;10.672;2023-12-20T01:09:13;2.50;;;2.07;;
30133;SDS011;16946;49.984;10.672;2023-12-20T01:09:44;2.85;;;2.25;;
30133;SDS011;16946;49.984;10.672;2023-12-20T01:10:15;4.03;;;2.50;;
30133;SDS011;16946;49.984;10.672;2023-12-20T01:10:45;2.97;;;2.20;;
30133;SDS011;16946;49.984;10.672;2023-12-20T01:11:16;3.05;;;2.38;;
30133;SDS011;16946;49.984;10.672;2023-12-20T01:11:47;2.30;;;2.10;;
30133;SDS011;16946;49.984;10.672;2023-12-20T01:12:17;3.63;;;2.20;;
30133;SDS011;16946;49.984;10.672;2023-12-20T01:12:50;2.47;;;2.28;;
30133;SDS011;16946;49.984;10.672;2023-12-20T01:13:20;2.30;;;2.10;;
30133;SDS011;16946;49.984;10.672;2023-12-20T01:13:51;2.63;;;2.20;;
30133;SDS011;16946;49.984;10.672;2023-12-20T01:14:21;2.90;;;2.30;;
30133;SDS011;16946;49.984;10.672;2023-12-20T01:14:52;2.03;;;1.83;;
30133;SDS011;16946;49.984;10.672;2023-12-20T01:15:22;2.80;;;2.50;;
30133;SDS011;16946;49.984;10.672;2023-12-20T01:15:53;3.70;;;2.20;;
30133;SDS011;16946;49.984;10.672;2023-12-20T01:16:23;2.93;;;2.63;;
30133;SDS011;16946;49.984;10.672;2023-12-20T01:16:54;3.10;;;2.20;;
30133;SDS011;16946;49.984;10.672;2023-12-20T01:17:24;2.93;;;2.63;;
30133;SDS011;16946;49.984;10.672;2023-12-20T01:17:55;2.47;;;2.27;;
30133;SDS011;16946;49.984;10.672;2023-12-20T01:18:27;3.28;;;2.30;;
30133;SDS011;16946;49.984;10.672;2023-12-20T01:18:58;2.75;;;2.30;;
30133;SDS011;16946;49.984;10.672;2023-12-20T01:19:28;2.90;;;1.70;;
30133;SDS011;16946;49.984;10.672;2023-12-20T01:19:59;2.55;;;2.35;;
30133;SDS011;16946;49.984;10.672;2023-12-20T01:20:30;3.57;;;2.10;;
30133;SDS011;16946;49.984;10.672;2023-12-20T01:21:01;3.80;;;2.37;;
30133;SDS011;16946;49.984;10.672;2023-12-20T01:21:33;2.28;;;2.08;;
30133;SDS011;16946;49.984;10.672;2023-12-20T01:22:04;2.20;;;2.10;;
30133;SDS011;16946;49.984;10.672;2023-12-20T01:22:34;2.58;;;2.30;;
30133;SDS011;16946;49.984;10.672;2023-12-20T01:23:05;2.30;;;2.10;;
30133;SDS011;16946;49.984;10.672;2023-12-20T01:23:36;2.13;;;1.90;;
30133;SDS011;16946;49.984;10.672;2023-12-20T01:24:06;2.50;;;2.30;;
30133;SDS011;16946;49.984;10.672;2023-12-20T01:24:37;2.87;;;2.30;;
30133;SDS011;16946;49.984;10.672;2023-12-20T01:25:07;3.00;;;2.60;;
30133;SDS011;16946;49.984;10.672;2023-12-20T01:25:38;2.90;;;2.20;;
30133;SDS011;16946;49.984;10.672;2023-12-20T01:26:09;2.03;;;1.90;;
30133;SDS011;16946;49.984;10.672;2023-12-20T01:26:39;2.00;;;1.77;;
30133;SDS011;16946;49.984;10.672;2023-12-20T01:27:10;5.50;;;2.10;;
30133;SDS011;16946;49.984;10.672;2023-12-20T01:27:40;2.40;;;2.07;;
30133;SDS011;16946;49.984;10.672;2023-12-20T01:28:11;2.67;;;2.17;;
30133;SDS011;16946;49.984;10.672;2023-12-20T01:28:42;2.70;;;2.40;;
30133;SDS011;16946;49.984;10.672;2023-12-20T01:29:13;2.83;;;2.13;;
30133;SDS011;16946;49.984;10.672;2023-12-20T01:29:44;3.42;;;2.35;;
30133;SDS011;16946;49.984;10.672;2023-12-20T01:30:14;2.53;;;2.33;;
30133;SDS011;16946;49.984;10.672;2023-12-20T01:30:45;2.77;;;2.47;;
30133;SDS011;16946;49.984;10.672;2023-12-20T01:31:15;2.97;;;2.40;;
30133;SDS011;16946;49.984;10.672;2023-12-20T01:31:46;2.10;;;1.90;;
30133;SDS011;16946;49.984;10.672;2023-12-20T01:32:16;1.93;;;1.73;;
30133;SDS011;16946;49.984;10.672;2023-12-20T01:32:47;1.60;;;1.50;;
30133;SDS011;16946;49.984;10.672;2023-12-20T01:33:17;2.73;;;2.40;;
30133;SDS011;16946;49.984;10.672;2023-12-20T01:33:48;2.83;;;1.93;;
30133;SDS011;16946;49.984;10.672;2023-12-20T01:34:18;2.23;;;1.80;;
30133;SDS011;16946;49.984;10.672;2023-12-20T01:34:49;3.20;;;2.50;;
30133;SDS011;16946;49.984;10.672;2023-12-20T01:35:19;2.10;;;1.90;;
30133;SDS011;16946;49.984;10.672;2023-12-20T01:35:50;3.37;;;2.57;;
30133;SDS011;16946;49.984;10.672;2023-12-20T01:36:20;2.23;;;1.77;;
30133;SDS011;16946;49.984;10.672;2023-12-20T01:36:51;2.37;;;1.93;;
30133;SDS011;16946;49.984;10.672;2023-12-20T01:37:21;2.80;;;1.80;;
30133;SDS011;16946;49.984;10.672;2023-12-20T01:37:53;2.33;;;1.90;;
30133;SDS011;16946;49.984;10.672;2023-12-20T01:38:27;2.10;;;1.90;;
30133;SDS011;16946;49.984;10.672;2023-12-20T01:38:57;2.10;;;1.90;;
30133;SDS011;16946;49.984;10.672;2023-12-20T01:39:28;2.40;;;2.20;;
30133;SDS011;16946;49.984;10.672;2023-12-20T01:39:58;3.43;;;1.90;;
30133;SDS011;16946;49.984;10.672;2023-12-20T01:40:29;4.10;;;2.13;;
30133;SDS011;16946;49.984;10.672;2023-12-20T01:40:59;3.83;;;2.33;;
30133;SDS011;16946;49.984;10.672;2023-12-20T01:41:30;2.53;;;2.27;;
30133;SDS011;16946;49.984;10.672;2023-12-20T01:42:00;1.87;;;1.77;;
30133;SDS011;16946;49.984;10.672;2023-12-20T01:42:31;3.00;;;2.20;;
30133;SDS011;16946;49.984;10.672;2023-12-20T01:43:02;1.90;;;1.77;;
30133;SDS011;16946;49.984;10.672;2023-12-20T01:43:37;1.90;;;1.73;;
30133;SDS011;16946;49.984;10.672;2023-12-20T01:44:08;2.80;;;1.90;;
30133;SDS011;16946;49.984;10.672;2023-12-20T01:44:38;3.40;;;2.23;;
30133;SDS011;16946;49.984;10.672;2023-12-20T01:45:09;3.17;;;2.17;;
30133;SDS011;16946;49.984;10.672;2023-12-20T01:45:39;4.80;;;2.57;;
30133;SDS011;16946;49.984;10.672;2023-12-20T01:46:10;2.40;;;2.20;;
30133;SDS011;16946;49.984;10.672;2023-12-20T01:46:42;2.30;;;2.03;;
30133;SDS011;16946;49.984;10.672;2023-12-20T01:47:12;2.57;;;2.20;;
30133;SDS011;16946;49.984;10.672;2023-12-20T01:47:43;2.33;;;2.00;;
30133;SDS011;16946;49.984;10.672;2023-12-20T01:48:14;2.07;;;1.87;;
30133;SDS011;16946;49.984;10.672;2023-12-20T01:48:47;3.00;;;1.90;;
30133;SDS011;16946;49.984;10.672;2023-12-20T01:49:18;2.63;;;1.80;;
30133;SDS011;16946;49.984;10.672;2023-12-20T01:49:49;1.88;;;1.75;;
30133;SDS011;16946;49.984;10.672;2023-12-20T01:50:20;2.10;;;1.93;;
30133;SDS011;16946;49.984;10.672;2023-12-20T01:50:51;3.22;;;1.90;;
30133;SDS011;16946;49.984;10.672;2023-12-20T01:51:23;2.38;;;2.17;;
30133;SDS011;16946;49.984;10.672;2023-12-20T01:51:54;2.13;;;1.92;;
30133;SDS011;16946;49.984;10.672;2023-12-20T01:52:25;3.57;;;1.57;;
30133;SDS011;16946;49.984;10.672;2023-12-20T01:53:00;2.63;;;1.98;;
30133;SDS011;16946;49.984;10.672;2023-12-20T01:53:31;2.10;;;1.90;;
30133;SDS011;16946;49.984;10.672;2023-12-20T01:54:02;2.13;;;1.92;;
30133;SDS011;16946;49.984;10.672;2023-12-20T01:54:34;3.40;;;1.88;;
30133;SDS011;16946;49.984;10.672;2023-12-20T01:55:06;2.17;;;1.98;;
30133;SDS011;16946;49.984;10.672;2023-12-20T01:55:42;1.67;;;1.58;;
30133;SDS011;16946;49.984;10.672;2023-12-20T01:56:14;3.05;;;1.90;;
30133;SDS011;16946;49.984;10.672;2023-12-20T01:56:45;2.00;;;1.70;;
30133;SDS011;16946;49.984;10.672;2023-12-20T01:57:16;1.52;;;1.42;;
30133;SDS011;16946;49.984;10.672;2023-12-20T01:57:47;2.57;;;1.87;;
30133;SDS011;16946;49.984;10.672;2023-12-20T01:58:18;1.97;;;1.80;;
30133;SDS011;16946;49.984;10.672;2023-12-20T01:58:49;1.70;;;1.60;;
30133;SDS011;16946;49.984;10.672;2023-12-20T01:59:20;2.20;;;1.47;;
30133;SDS011;16946;49.984;10.672;2023-12-20T01:59:50;2.23;;;1.80;;
30133;SDS011;16946;49.984;10.672;2023-12-20T02:00:21;2.10;;;1.70;;
30133;SDS011;16946;49.984;10.672;2023-12-20T02:00:53;3.95;;;1.48;;
30133;SDS011;16946;49.984;10.672;2023-12-20T02:01:24;1.60;;;1.20;;
30133;SDS011;16946;49.984;10.672;2023-12-20T02:01:55;1.40;;;1.30;;
30133;SDS011;16946;49.984;10.672;2023-12-20T02:02:26;1.73;;;1.50;;
30133;SDS011;16946;49.984;10.672;2023-12-20T02:03:00;2.03;;;1.67;;
30133;SDS011;16946;49.984;10.672;2023-12-20T02:03:31;2.03;;;1.80;;
30133;SDS011;16946;49.984;10.672;2023-12-20T02:04:02;1.60;;;1.50;;
30133;SDS011;16946;49.984;10.672;2023-12-20T02:04:33;1.30;;;1.20;;
30133;SDS011;16946;49.984;10.672;2023-12-20T02:05:05;1.40;;;1.30;;
30133;SDS011;16946;49.984;10.672;2023-12-20T02:05:36;1.50;;;1.40;;
30133;SDS011;16946;49.984;10.672;2023-12-20T02:06:09;1.35;;;1.25;;
30133;SDS011;16946;49.984;10.672;2023-12-20T02:06:39;1.40;;;1.30;;
30133;SDS011;16946;49.984;10.672;2023-12-20T02:07:10;1.43;;;1.33;;
30133;SDS011;16946;49.984;10.672;2023-12-20T02:07:41;4.53;;;1.30;;
30133;SDS011;16946;49.984;10.672;2023-12-20T02:08:12;1.40;;;1.30;;
30133;SDS011;16946;49.984;10.672;2023-12-20T02:08:42;1.53;;;1.43;;
30133;SDS011;16946;49.984;10.672;2023-12-20T02:09:13;1.83;;;1.60;;
30133;SDS011;16946;49.984;10.672;2023-12-20T02:09:45;2.10;;;1.90;;
30133;SDS011;16946;49.984;10.672;2023-12-20T02:10:16;1.67;;;1.48;;
30133;SDS011;16946;49.984;10.672;2023-12-20T02:10:47;1.65;;;1.55;;
30133;SDS011;16946;49.984;10.672;2023-12-20T02:11:17;2.43;;;1.70;;
30133;SDS011;16946;49.984;10.672;2023-12-20T02:11:49;1.40;;;1.30;;
30133;SDS011;16946;49.984;10.672;2023-12-20T02:12:19;1.70;;;1.50;;
30133;SDS011;16946;49.984;10.672;2023-12-20T02:12:51;1.50;;;1.40;;
30133;SDS011;16946;49.984;10.672;2023-12-20T02:13:21;2.17;;;1.53;;
30133;SDS011;16946;49.984;10.672;2023-12-20T02:13:53;2.00;;;1.20;;
30133;SDS011;16946;49.984;10.672;2023-12-20T02:14:23;1.75;;;1.20;;
30133;SDS011;16946;49.984;10.672;2023-12-20T02:14:54;1.93;;;1.23;;
30133;SDS011;16946;49.984;10.672;2023-12-20T02:15:24;1.83;;;1.37;;
30133;SDS011;16946;49.984;10.672;2023-12-20T02:15:55;2.77;;;1.47;;
30133;SDS011;16946;49.984;10.672;2023-12-20T02:16:26;1.37;;;1.27;;
30133;SDS011;16946;49.984;10.672;2023-12-20T02:16:57;6.23;;;1.53;;
30133;SDS011;16946;49.984;10.672;2023-12-20T02:17:27;1.17;;;1.07;;
30133;SDS011;16946;49.984;10.672;2023-12-20T02:17:59;1.25;;;1.15;;
30133;SDS011;16946;49.984;10.672;2023-12-20T02:18:30;0.90;;;0.90;;
30133;SDS011;16946;49.984;10.672;2023-12-20T02:19:00;1.47;;;1.37;;
30133;SDS011;16946;49.984;10.672;2023-12-20T02:19:31;1.70;;;1.40;;
30133;SDS011;16946;49.984;10.672;2023-12-20T02:20:02;1.87;;;1.40;;
30133;SDS011;16946;49.984;10.672;2023-12-20T02:20:32;2.53;;;1.20;;
30133;SDS011;16946;49.984;10.672;2023-12-20T02:21:04;2.87;;;1.50;;
30133;SDS011;16946;49.984;10.672;2023-12-20T02:21:35;1.40;;;1.30;;
30133;SDS011;16946;49.984;10.672;2023-12-20T02:22:12;1.83;;;1.50;;
30133;SDS011;16946;49.984;10.672;2023-12-20T02:22:42;1.27;;;1.17;;
30133;SDS011;16946;49.984;10.672;2023-12-20T02:23:13;1.27;;;1.10;;
30133;SDS011;16946;49.984;10.672;2023-12-20T02:23:44;1.70;;;1.30;;
30133;SDS011;16946;49.984;10.672;2023-12-20T02:24:14;1.63;;;1.00;;
30133;SDS011;16946;49.984;10.672;2023-12-20T02:24:45;1.20;;;1.10;;
30133;SDS011;16946;49.984;10.672;2023-12-20T02:25:15;1.07;;;0.93;;
30133;SDS011;16946;49.984;10.672;2023-12-20T02:25:46;1.10;;;1.00;;
30133;SDS011;16946;49.984;10.672;2023-12-20T02:26:16;1.23;;;1.10;;
30133;SDS011;16946;49.984;10.672;2023-12-20T02:26:48;1.48;;;1.33;;
30133;SDS011;16946;49.984;10.672;2023-12-20T02:27:19;1.77;;;1.40;;
30133;SDS011;16946;49.984;10.672;2023-12-20T02:27:50;1.30;;;1.20;;
30133;SDS011;16946;49.984;10.672;2023-12-20T02:28:20;1.25;;;1.15;;
30133;SDS011;16946;49.984;10.672;2023-12-20T02:28:52;1.17;;;1.08;;
30133;SDS011;16946;49.984;10.672;2023-12-20T02:29:23;1.57;;;1.00;;
30133;SDS011;16946;49.984;10.672;2023-12-20T02:29:53;1.87;;;1.10;;
30133;SDS011;16946;49.984;10.672;2023-12-20T02:30:24;1.20;;;1.10;;
30133;SDS011;16946;49.984;10.672;2023-12-20T02:30:54;1.07;;;0.97;;
30133;SDS011;16946;49.984;10.672;2023-12-20T02:31:25;1.50;;;1.40;;
30133;SDS011;16946;49.984;10.672;2023-12-20T02:31:55;1.67;;;1.30;;
30133;SDS011;16946;49.984;10.672;2023-12-20T02:32:26;1.30;;;1.20;;
30133;SDS011;16946;49.984;10.672;2023-12-20T02:32:58;1.13;;;1.02;;
30133;SDS011;16946;49.984;10.672;2023-12-20T02:33:30;2.78;;;1.30;;
30133;SDS011;16946;49.984;10.672;2023-12-20T02:34:01;1.23;;;1.10;;
30133;SDS011;16946;49.984;10.672;2023-12-20T02:34:31;1.27;;;1.17;;
30133;SDS011;16946;49.984;10.672;2023-12-20T02:35:02;1.10;;;1.00;;
30133;SDS011;16946;49.984;10.672;2023-12-20T02:35:32;1.13;;;1.03;;
30133;SDS011;16946;49.984;10.672;2023-12-20T02:36:03;1.37;;;1.03;;
30133;SDS011;16946;49.984;10.672;2023-12-20T02:36:34;1.47;;;1.27;;
30133;SDS011;16946;49.984;10.672;2023-12-20T02:37:04;3.20;;;1.17;;
30133;SDS011;16946;49.984;10.672;2023-12-20T02:37:35;3.43;;;1.30;;
30133;SDS011;16946;49.984;10.672;2023-12-20T02:38:05;1.57;;;1.33;;
30133;SDS011;16946;49.984;10.672;2023-12-20T02:38:36;1.70;;;1.57;;
30133;SDS011;16946;49.984;10.672;2023-12-20T02:39:06;1.00;;;0.90;;
30133;SDS011;16946;49.984;10.672;2023-12-20T02:39:37;0.70;;;0.70;;
30133;SDS011;16946;49.984;10.672;2023-12-20T02:40:07;0.70;;;0.70;;
30133;SDS011;16946;49.984;10.672;2023-12-20T02:40:38;0.80;;;0.80;;
30133;SDS011;16946;49.984;10.672;2023-12-20T02:41:09;0.93;;;0.80;;
30133;SDS011;16946;49.984;10.672;2023-12-20T02:41:39;1.60;;;1.00;;
30133;SDS011;16946;49.984;10.672;2023-12-20T02:42:10;1.30;;;1.20;;
30133;SDS011;16946;49.984;10.672;2023-12-20T02:42:40;0.97;;;0.90;;
30133;SDS011;16946;49.984;10.672;2023-12-20T02:43:11;1.57;;;1.00;;
30133;SDS011;16946;49.984;10.672;2023-12-20T02:43:41;1.27;;;0.93;;
30133;SDS011;16946;49.984;10.672;2023-12-20T02:44:12;0.97;;;0.90;;
30133;SDS011;16946;49.984;10.672;2023-12-20T02:44:43;0.80;;;0.80;;
30133;SDS011;16946;49.984;10.672;2023-12-20T02:45:13;0.90;;;0.87;;
30133;SDS011;16946;49.984;10.672;2023-12-20T02:45:44;0.97;;;0.77;;
30133;SDS011;16946;49.984;10.672;2023-12-20T02:46:14;0.97;;;0.90;;
30133;SDS011;16946;49.984;10.672;2023-12-20T02:46:46;0.73;;;0.73;;
30133;SDS011;16946;49.984;10.672;2023-12-20T02:47:17;0.70;;;0.70;;
30133;SDS011;16946;49.984;10.672;2023-12-20T02:47:47;0.83;;;0.83;;
30133;SDS011;16946;49.984;10.672;2023-12-20T02:48:18;0.70;;;0.70;;
30133;SDS011;16946;49.984;10.672;2023-12-20T02:48:49;0.97;;;0.90;;
30133;SDS011;16946;49.984;10.672;2023-12-20T02:49:19;0.80;;;0.80;;
30133;SDS011;16946;49.984;10.672;2023-12-20T02:49:50;1.00;;;0.90;;
30133;SDS011;16946;49.984;10.672;2023-12-20T02:50:20;1.10;;;0.97;;
30133;SDS011;16946;49.984;10.672;2023-12-20T02:50:51;0.80;;;0.80;;
30133;SDS011;16946;49.984;10.672;2023-12-20T02:51:22;1.10;;;1.00;;
30133;SDS011;16946;49.984;10.672;2023-12-20T02:51:52;1.33;;;1.00;;
30133;SDS011;16946;49.984;10.672;2023-12-20T02:52:23;0.97;;;0.90;;
30133;SDS011;16946;49.984;10.672;2023-12-20T02:52:54;1.30;;;1.00;;
30133;SDS011;16946;49.984;10.672;2023-12-20T02:53:24;1.87;;;1.37;;
30133;SDS011;16946;49.984;10.672;2023-12-20T02:53:55;0.90;;;0.90;;
30133;SDS011;16946;49.984;10.672;2023-12-20T02:54:26;1.70;;;0.90;;
30133;SDS011;16946;49.984;10.672;2023-12-20T02:54:56;0.80;;;0.80;;
30133;SDS011;16946;49.984;10.672;2023-12-20T02:55:27;1.30;;;1.00;;
30133;SDS011;16946;49.984;10.672;2023-12-20T02:55:57;1.70;;;0.90;;
30133;SDS011;16946;49.984;10.672;2023-12-20T02:56:28;0.73;;;0.73;;
30133;SDS011;16946;49.984;10.672;2023-12-20T02:56:58;0.70;;;0.70;;
30133;SDS011;16946;49.984;10.672;2023-12-20T02:57:29;1.17;;;0.90;;
30133;SDS011;16946;49.984;10.672;2023-12-20T02:57:59;1.07;;;1.00;;
30133;SDS011;16946;49.984;10.672;2023-12-20T02:58:30;1.57;;;1.20;;
30133;SDS011;16946;49.984;10.672;2023-12-20T02:59:01;1.20;;;1.07;;
30133;SDS011;16946;49.984;10.672;2023-12-20T02:59:31;1.20;;;1.10;;
30133;SDS011;16946;49.984;10.672;2023-12-20T03:00:02;1.20;;;1.10;;
30133;SDS011;16946;49.984;10.672;2023-12-20T03:00:33;1.73;;;1.50;;
30133;SDS011;16946;49.984;10.672;2023-12-20T03:01:04;1.55;;;1.38;;
30133;SDS011;16946;49.984;10.672;2023-12-20T03:01:34;0.83;;;0.80;;
30133;SDS011;16946;49.984;10.672;2023-12-20T03:02:05;0.80;;;0.80;;
30133;SDS011;16946;49.984;10.672;2023-12-20T03:02:35;1.10;;;0.90;;